Esquimalt, Canada
Current Conditions -  °F | °C
As of 8:00 AM on Monday 24 Nov 2014 (Local Time) from CYWH Reporting Station
Overcast Overcast  
Wind Chill: 46°   Ceiling: 1000
Heat Index: 46°   Visibility: 15mi
Dew Point: 41°   Wind: 3mph
Humidity: 81%   Direction: 100°E
Pressure: 30.28"   Gusts: NA
Location:  48.43°N, 123.41°W
Report Text: CYWH 241600Z 10003KT 15SM BKN010 BKN110 OVC200 08/05 A3028 RMKSC5AC2CI2 SLP255
Loading
Personal Weather Stations






























Interactive Weather Map New forecast layout! Learn more

10-Day Weather Forecast

Advertisements
Track Severe Weather on mobile